Time;durP1;ratioP1;P1;durP2;ratioP2;P2;SDS_P1;SDS_P2;PMS_P1;PMS_P2;Temp;Humidity;BMP_temperature;BMP_pressure;BME280_temperature;BME280_humidity;BME280_pressure;Samples;Min_cycle;Max_cycle;Signal;HPM_P1;HPM_P2
2024/01/06 00:01:49;;;;;;;35.40;19.95;;;1.60;99.90;;;;;;5073528;28;20560;-70
2024/01/06 00:04:15;;;;;;;44.47;24.67;;;1.80;99.90;;;;;;5090114;28;20035;-68
2024/01/06 00:06:41;;;;;;;38.95;24.25;;;1.90;99.90;;;;;;5073678;28;20031;-69
2024/01/06 00:09:07;;;;;;;34.72;22.38;;;1.40;99.90;;;;;;5073506;28;20071;-70
2024/01/06 00:11:33;;;;;;;30.38;18.58;;;1.40;99.90;;;;;;5093971;27;20039;-69
2024/01/06 00:13:59;;;;;;;36.47;23.75;;;1.50;99.90;;;;;;5090231;28;20776;-71
2024/01/06 00:16:24;;;;;;;35.63;23.10;;;1.30;99.90;;;;;;5073479;28;20041;-69
2024/01/06 00:18:50;;;;;;;41.15;25.42;;;1.30;99.90;;;;;;5089518;28;20039;-70
2024/01/06 00:21:16;;;;;;;37.67;22.98;;;1.90;99.90;;;;;;5055135;28;20126;-71
2024/01/06 00:23:42;;;;;;;32.75;21.25;;;1.30;99.90;;;;;;5072822;28;20581;-70
2024/01/06 00:26:09;;;;;;;37.47;23.92;;;1.90;99.90;;;;;;5073033;28;20044;-70
2024/01/06 00:28:35;;;;;;;35.30;21.70;;;1.70;99.90;;;;;;5089891;28;20416;-70
2024/01/06 00:31:01;;;;;;;37.25;23.27;;;1.30;99.90;;;;;;5071856;28;20044;-70
2024/01/06 00:33:26;;;;;;;38.33;23.85;;;1.70;99.90;;;;;;5054357;28;20716;-69
2024/01/06 00:35:52;;;;;;;37.97;24.67;;;2.00;99.90;;;;;;5071668;28;20092;-70
2024/01/06 00:38:19;;;;;;;37.47;22.45;;;1.50;99.90;;;;;;5056064;28;20039;-70
2024/01/06 00:40:45;;;;;;;32.13;22.67;;;1.50;99.90;;;;;;5073149;28;20134;-71
2024/01/06 00:43:11;;;;;;;30.40;20.00;;;2.00;99.90;;;;;;5073039;28;20452;-70
2024/01/06 00:45:37;;;;;;;32.15;23.00;;;1.70;99.90;;;;;;5089647;28;20039;-71
2024/01/06 00:48:04;;;;;;;32.45;21.52;;;1.50;99.90;;;;;;5072159;28;20572;-69
2024/01/06 00:50:30;;;;;;;28.83;20.92;;;1.50;99.90;;;;;;5071860;28;20131;-71
2024/01/06 00:52:55;;;;;;;32.10;22.65;;;1.80;99.90;;;;;;5071760;28;20452;-69
2024/01/06 00:55:22;;;;;;;28.15;18.52;;;1.90;99.90;;;;;;5076510;28;20055;-69
2024/01/06 00:57:48;;;;;;;32.40;19.75;;;1.50;99.90;;;;;;5074712;28;20040;-69
2024/01/06 01:00:14;;;;;;;30.00;20.20;;;1.80;99.90;;;;;;5071977;28;20134;-70
2024/01/06 01:02:40;;;;;;;24.17;15.68;;;1.40;99.90;;;;;;5072049;28;20650;-70
2024/01/06 01:05:09;;;;;;;21.10;14.13;;;1.90;99.90;;;;;;5088242;28;20231;-71
2024/01/06 01:07:35;;;;;;;31.63;21.70;;;1.80;99.90;;;;;;5092597;28;20543;-71
2024/01/06 01:10:01;;;;;;;29.73;19.35;;;1.40;99.90;;;;;;5054790;28;20134;-70
2024/01/06 01:12:27;;;;;;;21.48;15.30;;;1.30;99.90;;;;;;5072019;28;20482;-69
2024/01/06 01:14:53;;;;;;;24.63;18.20;;;1.80;99.90;;;;;;5088051;28;20043;-70
2024/01/06 01:17:19;;;;;;;22.42;15.50;;;1.80;99.90;;;;;;5089230;28;20251;-70
2024/01/06 01:19:45;;;;;;;30.25;20.98;;;1.30;99.90;;;;;;5071696;28;20111;-71
2024/01/06 01:22:12;;;;;;;35.80;23.73;;;1.70;99.90;;;;;;5089755;28;20052;-71
2024/01/06 01:24:38;;;;;;;28.63;20.38;;;1.40;99.90;;;;;;5092249;28;20487;-70
2024/01/06 01:27:04;;;;;;;30.13;20.23;;;1.70;99.90;;;;;;5075539;28;20457;-69
2024/01/06 01:29:30;;;;;;;26.35;18.23;;;1.30;99.90;;;;;;5075825;28;20039;-70
2024/01/06 01:31:55;;;;;;;32.10;22.35;;;1.50;99.90;;;;;;5075297;28;20726;-70
2024/01/06 01:34:21;;;;;;;29.95;21.27;;;1.40;99.90;;;;;;5057986;28;20137;-69
2024/01/06 01:36:47;;;;;;;26.45;17.63;;;1.50;99.90;;;;;;5059062;28;20078;-69
2024/01/06 01:39:13;;;;;;;27.33;18.73;;;1.80;99.90;;;;;;5058625;28;20086;-69
2024/01/06 01:41:40;;;;;;;34.05;22.50;;;1.70;99.90;;;;;;5075821;28;20035;-69
2024/01/06 01:44:06;;;;;;;35.67;23.10;;;1.70;99.90;;;;;;5075825;28;20047;-71
2024/01/06 01:46:32;;;;;;;34.20;21.73;;;1.70;99.90;;;;;;5074074;28;20150;-70
2024/01/06 01:49:00;;;;;;;23.75;15.57;;;1.80;99.90;;;;;;5057024;28;20185;-70
2024/01/06 01:51:31;;;;;;;27.17;18.80;;;1.30;99.90;;;;;;5090725;28;20556;-70
2024/01/06 01:54:02;;;;;;;34.03;22.15;;;1.50;99.90;;;;;;5096079;27;20066;-70
2024/01/06 01:56:29;;;;;;;33.90;22.67;;;1.80;99.90;;;;;;5073750;28;20050;-70
2024/01/06 01:58:55;;;;;;;19.60;13.38;;;1.80;99.90;;;;;;5091012;28;20127;-68
2024/01/06 02:01:21;;;;;;;30.65;21.38;;;1.60;99.90;;;;;;5073808;28;20043;-69
2024/01/06 02:03:47;;;;;;;28.02;18.17;;;1.30;99.90;;;;;;5056925;28;20050;-70
2024/01/06 02:06:13;;;;;;;29.88;20.42;;;1.60;99.90;;;;;;5057302;28;20069;-70
2024/01/06 02:08:39;;;;;;;24.52;17.45;;;1.60;99.90;;;;;;5074690;28;20779;-70
2024/01/06 02:11:05;;;;;;;25.52;16.17;;;1.30;99.90;;;;;;5073314;28;20042;-70
2024/01/06 02:13:35;;;;;;;18.02;11.77;;;1.50;99.90;;;;;;5074453;28;20044;-69
2024/01/06 02:16:03;;;;;;;20.35;14.07;;;1.00;99.90;;;;;;5057678;28;20737;-69
2024/01/06 02:18:28;;;;;;;29.73;19.65;;;1.30;99.90;;;;;;5090815;28;20414;-70
2024/01/06 02:20:58;;;;;;;26.40;17.75;;;1.50;99.90;;;;;;5074124;28;20108;-69
2024/01/06 02:23:24;;;;;;;18.33;12.23;;;0.90;99.90;;;;;;5090893;28;20096;-68
2024/01/06 02:25:50;;;;;;;21.83;15.70;;;1.40;99.90;;;;;;5072856;28;20454;-69
2024/01/06 02:28:15;;;;;;;26.77;18.25;;;1.00;99.90;;;;;;5057240;28;20532;-69
2024/01/06 02:30:41;;;;;;;16.02;12.00;;;1.50;99.90;;;;;;5073719;28;20052;-70
2024/01/06 02:33:07;;;;;;;22.23;17.15;;;1.40;99.90;;;;;;5057289;28;20569;-69
2024/01/06 02:35:33;;;;;;;23.15;15.80;;;1.10;99.90;;;;;;5073570;28;20592;-70
2024/01/06 02:37:58;;;;;;;20.15;14.68;;;1.60;99.90;;;;;;5090824;28;20455;-70
2024/01/06 02:40:24;;;;;;;22.55;15.45;;;1.10;99.90;;;;;;5073149;28;20047;-70
2024/01/06 02:42:50;;;;;;;20.80;14.80;;;1.70;99.90;;;;;;5073267;28;20062;-68
2024/01/06 02:45:15;;;;;;;17.65;13.25;;;1.20;99.90;;;;;;5073054;28;20039;-68
2024/01/06 02:47:41;;;;;;;23.30;16.25;;;1.10;99.90;;;;;;5072395;28;20043;-68
2024/01/06 02:50:07;;;;;;;23.75;16.85;;;1.10;99.90;;;;;;5059988;28;20047;-69
2024/01/06 02:52:33;;;;;;;22.85;16.10;;;1.20;99.90;;;;;;5072570;28;20036;-69
2024/01/06 02:55:00;;;;;;;26.15;19.35;;;1.40;99.90;;;;;;5073465;28;20089;-69
2024/01/06 02:57:27;;;;;;;17.90;12.32;;;1.10;99.90;;;;;;5072151;28;20096;-71
2024/01/06 02:59:53;;;;;;;23.25;15.90;;;1.10;99.90;;;;;;5088738;28;20406;-69
2024/01/06 03:02:18;;;;;;;28.33;20.65;;;1.20;99.90;;;;;;5044733;28;20044;-69
2024/01/06 03:04:44;;;;;;;28.08;20.45;;;1.60;99.90;;;;;;5054441;28;20047;-70
2024/01/06 03:07:10;;;;;;;28.48;19.70;;;1.10;99.90;;;;;;5055585;28;20299;-68
2024/01/06 03:09:36;;;;;;;28.52;20.58;;;1.60;99.90;;;;;;5072973;28;20451;-70
2024/01/06 03:12:02;;;;;;;17.85;11.85;;;1.10;99.90;;;;;;5089459;28;20040;-69
2024/01/06 03:14:27;;;;;;;29.67;20.63;;;1.00;99.90;;;;;;5090103;28;20425;-70
2024/01/06 03:16:53;;;;;;;23.17;16.80;;;1.10;99.90;;;;;;5072490;28;20039;-69
2024/01/06 03:19:19;;;;;;;30.55;21.85;;;1.50;99.90;;;;;;5089727;28;20086;-69
2024/01/06 03:21:45;;;;;;;29.40;22.10;;;1.50;99.90;;;;;;5061104;28;20617;-69
2024/01/06 03:24:11;;;;;;;34.80;26.45;;;1.50;99.90;;;;;;5055403;28;20039;-68
2024/01/06 03:26:36;;;;;;;27.95;22.50;;;1.50;99.90;;;;;;5072994;28;20035;-68
2024/01/06 03:29:02;;;;;;;32.15;22.08;;;1.40;99.90;;;;;;5054909;28;20040;-69
2024/01/06 03:31:29;;;;;;;31.10;20.55;;;1.10;99.90;;;;;;5072469;28;20040;-69
2024/01/06 03:33:55;;;;;;;30.48;21.20;;;1.20;99.90;;;;;;5087997;27;20048;-68
2024/01/06 03:36:21;;;;;;;28.50;20.98;;;1.10;99.90;;;;;;5072866;28;20119;-68
2024/01/06 03:38:47;;;;;;;27.20;19.77;;;1.00;99.90;;;;;;5089556;28;20410;-69
2024/01/06 03:41:13;;;;;;;28.33;19.13;;;1.50;99.90;;;;;;5071836;28;20121;-68
2024/01/06 03:43:39;;;;;;;22.85;16.27;;;1.00;99.90;;;;;;5073914;28;20080;-69
2024/01/06 03:46:05;;;;;;;29.17;20.85;;;1.30;99.90;;;;;;5071741;28;20914;-68
2024/01/06 03:48:31;;;;;;;24.88;20.13;;;1.10;99.90;;;;;;5072570;28;20726;-69
2024/01/06 03:50:59;;;;;;;24.33;17.38;;;1.40;99.90;;;;;;5072748;28;20039;-68
2024/01/06 03:53:25;;;;;;;24.88;18.02;;;1.50;99.90;;;;;;5089020;28;20070;-68
2024/01/06 03:55:51;;;;;;;29.23;20.25;;;1.40;99.90;;;;;;5089341;28;20067;-68
2024/01/06 03:58:17;;;;;;;28.67;21.13;;;1.60;99.90;;;;;;5089164;28;20476;-69
2024/01/06 04:00:43;;;;;;;21.38;17.02;;;1.30;99.90;;;;;;5054720;28;20313;-69
2024/01/06 04:03:09;;;;;;;26.45;20.77;;;1.50;99.90;;;;;;5071745;28;20040;-68
2024/01/06 04:05:35;;;;;;;26.73;19.58;;;1.50;99.90;;;;;;5055949;28;20452;-68
2024/01/06 04:08:00;;;;;;;19.70;13.88;;;1.50;99.90;;;;;;5072574;28;20182;-69
2024/01/06 04:10:26;;;;;;;27.92;21.00;;;1.00;99.90;;;;;;5075218;28;20044;-69
2024/01/06 04:12:52;;;;;;;18.45;15.07;;;1.00;99.90;;;;;;5069423;28;20488;-69
2024/01/06 04:15:17;;;;;;;18.75;14.38;;;1.10;99.90;;;;;;5088675;28;20042;-69
2024/01/06 04:17:44;;;;;;;23.60;18.50;;;1.20;99.90;;;;;;5053525;28;20107;-68
2024/01/06 04:20:14;;;;;;;19.08;14.45;;;1.10;99.90;;;;;;5071959;28;20481;-69
2024/01/06 04:22:39;;;;;;;25.65;18.60;;;1.30;99.90;;;;;;5069662;28;20473;-69
2024/01/06 04:25:05;;;;;;;27.02;21.52;;;1.00;99.90;;;;;;5071005;28;20039;-69
2024/01/06 04:27:33;;;;;;;25.65;20.52;;;1.00;99.90;;;;;;5071610;28;20132;-68
2024/01/06 04:29:59;;;;;;;26.75;20.52;;;1.10;99.90;;;;;;5070414;28;20040;-69
2024/01/06 04:32:25;;;;;;;24.83;18.52;;;1.40;99.90;;;;;;5071459;28;20046;-69
2024/01/06 04:34:51;;;;;;;25.73;18.35;;;1.10;99.90;;;;;;5088983;28;20304;-69
2024/01/06 04:37:16;;;;;;;20.13;14.57;;;1.30;99.90;;;;;;5071379;28;20113;-68
2024/01/06 04:39:42;;;;;;;23.77;17.92;;;1.40;99.90;;;;;;5071050;28;20405;-68
2024/01/06 04:42:08;;;;;;;23.42;18.42;;;1.60;99.90;;;;;;5070165;28;20043;-68
2024/01/06 04:44:34;;;;;;;24.33;18.17;;;1.20;99.90;;;;;;5088901;28;20035;-68
2024/01/06 04:47:00;;;;;;;21.77;17.02;;;1.10;99.90;;;;;;5069511;28;20043;-68
2024/01/06 04:49:25;;;;;;;19.63;15.23;;;1.30;99.90;;;;;;5072040;28;20051;-68
2024/01/06 04:51:52;;;;;;;18.70;13.57;;;1.30;99.90;;;;;;5087144;28;20280;-69
2024/01/06 04:54:18;;;;;;;21.90;16.30;;;1.50;99.90;;;;;;5070532;28;20032;-68
2024/01/06 04:56:43;;;;;;;23.15;17.27;;;1.10;99.90;;;;;;5071768;28;20113;-68
2024/01/06 04:59:09;;;;;;;17.63;14.10;;;1.20;99.90;;;;;;5079021;28;20107;-68
2024/01/06 05:01:35;;;;;;;18.73;14.90;;;1.50;99.90;;;;;;5074749;28;20193;-68
2024/01/06 05:04:00;;;;;;;18.77;15.27;;;1.50;99.90;;;;;;5075320;28;20096;-68
2024/01/06 05:06:27;;;;;;;19.00;14.90;;;1.40;99.90;;;;;;5091511;28;20032;-68
2024/01/06 05:08:52;;;;;;;16.30;12.43;;;1.10;99.90;;;;;;5075093;28;21202;-68
2024/01/06 05:11:18;;;;;;;19.77;15.48;;;1.10;99.90;;;;;;5056957;28;20067;-68
2024/01/06 05:13:44;;;;;;;22.13;16.70;;;1.20;99.90;;;;;;5075679;28;20053;-68
2024/01/06 05:16:09;;;;;;;21.70;17.65;;;1.30;99.90;;;;;;5091616;28;20634;-68
2024/01/06 05:18:35;;;;;;;19.73;14.88;;;1.60;99.90;;;;;;5092364;28;20359;-68
2024/01/06 05:21:02;;;;;;;20.67;16.25;;;1.20;99.90;;;;;;5091796;28;20032;-68
2024/01/06 05:23:28;;;;;;;17.80;14.43;;;1.20;99.90;;;;;;5075398;28;20217;-69
2024/01/06 05:25:53;;;;;;;20.15;14.43;;;1.50;99.90;;;;;;5092013;28;20250;-68
2024/01/06 05:28:19;;;;;;;17.05;12.65;;;1.50;99.90;;;;;;5090583;28;20035;-68
2024/01/06 05:30:45;;;;;;;19.33;16.65;;;1.30;99.90;;;;;;5074687;28;20464;-68
2024/01/06 05:33:13;;;;;;;20.73;17.10;;;1.20;99.90;;;;;;5074041;28;20319;-68
2024/01/06 05:35:39;;;;;;;20.23;16.83;;;1.20;99.90;;;;;;5074197;28;20031;-69
2024/01/06 05:38:05;;;;;;;20.38;16.67;;;1.60;99.90;;;;;;5056889;28;20048;-67
2024/01/06 05:40:30;;;;;;;18.20;15.35;;;1.20;99.90;;;;;;5056989;28;20465;-68
2024/01/06 05:42:56;;;;;;;19.55;15.30;;;1.40;99.90;;;;;;5073783;28;20318;-68
2024/01/06 05:45:22;;;;;;;17.58;13.15;;;1.40;99.90;;;;;;5041441;28;20051;-68
2024/01/06 05:47:48;;;;;;;14.45;11.52;;;1.20;99.90;;;;;;5073702;28;20075;-69
2024/01/06 05:50:18;;;;;;;16.80;12.82;;;1.50;99.90;;;;;;5074645;28;20048;-69
2024/01/06 05:52:44;;;;;;;21.58;16.10;;;1.60;99.90;;;;;;5073777;28;20164;-68
2024/01/06 05:55:10;;;;;;;16.50;13.20;;;1.40;99.90;;;;;;5092690;28;20104;-68
2024/01/06 05:57:36;;;;;;;18.80;15.88;;;1.50;99.90;;;;;;5090204;28;20051;-69
2024/01/06 06:00:01;;;;;;;15.55;13.07;;;1.60;99.90;;;;;;5106553;27;20054;-68
2024/01/06 06:02:27;;;;;;;16.23;11.88;;;1.40;99.90;;;;;;5074498;28;20046;-68
2024/01/06 06:04:53;;;;;;;19.02;15.90;;;1.40;99.90;;;;;;5091617;28;20153;-67
2024/01/06 06:07:20;;;;;;;15.82;13.13;;;1.70;99.90;;;;;;5055646;28;20032;-67
2024/01/06 06:09:49;;;;;;;20.52;15.75;;;1.50;99.90;;;;;;5074299;28;20043;-68
2024/01/06 06:12:15;;;;;;;21.27;15.13;;;1.60;99.90;;;;;;5057003;28;20043;-67
2024/01/06 06:14:41;;;;;;;20.17;16.73;;;1.40;99.90;;;;;;5091259;28;20039;-69
2024/01/06 06:17:07;;;;;;;20.70;18.02;;;1.70;99.90;;;;;;5078068;28;20084;-68
2024/01/06 06:19:36;;;;;;;22.83;19.77;;;1.70;99.90;;;;;;5074534;28;20040;-68
2024/01/06 06:22:02;;;;;;;20.85;17.13;;;1.70;99.90;;;;;;5090823;28;20039;-68
2024/01/06 06:24:28;;;;;;;18.75;15.90;;;1.80;99.90;;;;;;5073326;28;20031;-68
2024/01/06 06:26:53;;;;;;;20.38;18.17;;;1.80;99.90;;;;;;5056064;28;20201;-68
2024/01/06 06:29:20;;;;;;;18.33;16.17;;;1.70;99.90;;;;;;5039665;28;20043;-68
2024/01/06 06:31:46;;;;;;;20.63;17.63;;;1.80;99.90;;;;;;5088657;28;20505;-68
2024/01/06 06:34:12;;;;;;;21.17;18.55;;;1.70;99.90;;;;;;5074063;28;20317;-67
2024/01/06 06:36:41;;;;;;;17.63;14.40;;;1.50;99.90;;;;;;5090648;28;20043;-67
2024/01/06 06:39:07;;;;;;;19.73;17.20;;;1.70;99.90;;;;;;5059700;28;20126;-67
2024/01/06 06:41:33;;;;;;;21.80;19.45;;;1.60;99.90;;;;;;5090519;28;20060;-67
2024/01/06 06:43:59;;;;;;;19.60;17.13;;;1.50;99.90;;;;;;5055423;28;20595;-67
2024/01/06 06:46:25;;;;;;;22.20;19.65;;;1.60;99.90;;;;;;5057493;28;20059;-68
2024/01/06 06:48:51;;;;;;;25.30;21.80;;;1.80;99.90;;;;;;5056659;28;20572;-68
2024/01/06 06:51:17;;;;;;;24.00;20.95;;;1.80;99.90;;;;;;5073004;28;20130;-69
2024/01/06 06:53:43;;;;;;;24.10;21.60;;;1.50;99.90;;;;;;5091356;28;20463;-68
2024/01/06 06:56:09;;;;;;;26.83;22.38;;;1.70;99.90;;;;;;5074043;28;20478;-68
2024/01/06 06:58:35;;;;;;;25.90;23.10;;;1.40;99.90;;;;;;5125610;27;20653;-68
2024/01/06 07:01:01;;;;;;;23.60;19.20;;;1.70;99.90;;;;;;5075120;28;20131;-68
2024/01/06 07:03:27;;;;;;;30.70;27.30;;;1.50;99.90;;;;;;5074546;28;20474;-68
2024/01/06 07:05:52;;;;;;;28.90;25.13;;;1.80;99.90;;;;;;5055795;28;20096;-67
2024/01/06 07:08:20;;;;;;;24.85;20.88;;;1.80;99.90;;;;;;5072932;28;20580;-67
2024/01/06 07:10:51;;;;;;;33.85;24.77;;;1.50;99.90;;;;;;5074246;28;20338;-68
2024/01/06 07:13:19;;;;;;;32.38;26.63;;;1.50;99.90;;;;;;5058233;28;20047;-68
2024/01/06 07:15:45;;;;;;;31.38;26.30;;;1.50;99.90;;;;;;5058504;28;20567;-68
2024/01/06 07:18:11;;;;;;;28.48;25.27;;;1.50;99.90;;;;;;5075432;28;20093;-67
2024/01/06 07:20:37;;;;;;;29.35;22.70;;;1.80;99.90;;;;;;5073017;28;20050;-68
2024/01/06 07:23:03;;;;;;;28.55;23.20;;;1.80;99.90;;;;;;5090374;28;20069;-68
2024/01/06 07:25:30;;;;;;;24.75;18.60;;;1.60;99.90;;;;;;5073352;28;20036;-68
2024/01/06 07:27:56;;;;;;;30.90;26.15;;;1.80;99.90;;;;;;5057396;28;20050;-67
2024/01/06 07:30:22;;;;;;;27.73;24.02;;;1.80;99.90;;;;;;5074152;28;20317;-68
2024/01/06 07:32:49;;;;;;;32.33;27.27;;;1.80;99.90;;;;;;5073903;28;20096;-68
2024/01/06 07:35:16;;;;;;;26.08;23.27;;;1.80;99.90;;;;;;5076371;28;20111;-68
2024/01/06 07:37:47;;;;;;;30.13;25.00;;;1.60;99.90;;;;;;5091960;28;20571;-69
2024/01/06 07:40:16;;;;;;;25.92;21.55;;;1.60;99.90;;;;;;5057049;28;20039;-68
2024/01/06 07:42:43;;;;;;;30.38;25.63;;;1.90;99.90;;;;;;5057278;27;20122;-68
2024/01/06 07:45:10;;;;;;;25.38;21.35;;;1.90;99.90;;;;;;5125337;27;20047;-68
2024/01/06 07:47:36;;;;;;;28.13;23.27;;;1.90;99.90;;;;;;5055799;28;20054;-68
2024/01/06 07:50:03;;;;;;;24.92;19.67;;;1.60;99.90;;;;;;5056802;28;20394;-69
2024/01/06 07:52:28;;;;;;;29.40;22.63;;;1.70;99.90;;;;;;5090051;28;20537;-68
2024/01/06 07:54:55;;;;;;;30.90;24.40;;;1.60;99.90;;;;;;5056856;28;20050;-70
2024/01/06 07:57:21;;;;;;;32.97;26.20;;;1.90;99.90;;;;;;5058293;28;20633;-68
2024/01/06 07:59:46;;;;;;;27.73;24.65;;;1.60;99.90;;;;;;5056501;28;20055;-68
2024/01/06 08:02:12;;;;;;;25.70;20.25;;;1.50;99.90;;;;;;5073466;28;20314;-68
2024/01/06 08:04:38;;;;;;;29.08;25.25;;;1.60;99.90;;;;;;5055852;28;20410;-68
2024/01/06 08:07:21;;;;;;;25.23;21.05;;;1.80;99.90;;;;;;5089940;28;20039;-67
2024/01/06 08:09:52;;;;;;;28.20;23.58;;;1.60;99.90;;;;;;5076250;28;20118;-67
2024/01/06 08:12:18;;;;;;;27.80;24.23;;;1.80;99.90;;;;;;5076012;28;20042;-68
2024/01/06 08:14:43;;;;;;;31.27;25.27;;;1.90;99.90;;;;;;5058394;28;20040;-68
2024/01/06 08:17:09;;;;;;;31.10;25.65;;;1.80;99.90;;;;;;5090759;28;20339;-68
2024/01/06 08:19:35;;;;;;;30.13;24.88;;;1.70;99.90;;;;;;5073810;28;20035;-67
2024/01/06 08:22:01;;;;;;;29.30;26.05;;;1.90;99.90;;;;;;5091229;28;20087;-69
2024/01/06 08:24:27;;;;;;;30.88;25.70;;;1.70;99.90;;;;;;5074495;28;20039;-68
2024/01/06 08:26:53;;;;;;;28.38;24.60;;;1.90;99.90;;;;;;5090804;28;20202;-68
2024/01/06 08:29:19;;;;;;;28.48;23.67;;;1.60;99.90;;;;;;5090849;28;20254;-67
2024/01/06 08:31:45;;;;;;;29.58;24.70;;;1.90;99.90;;;;;;5056682;28;20035;-67
2024/01/06 08:34:11;;;;;;;31.25;27.02;;;1.90;99.90;;;;;;5073584;28;20074;-66
2024/01/06 08:36:38;;;;;;;28.35;24.15;;;1.80;99.90;;;;;;5073834;28;20177;-67
2024/01/06 08:39:04;;;;;;;27.30;22.60;;;1.80;99.90;;;;;;5091133;28;20055;-68
2024/01/06 08:41:29;;;;;;;32.22;24.27;;;1.70;99.90;;;;;;5073381;28;20193;-67
2024/01/06 08:43:55;;;;;;;32.33;27.67;;;1.90;99.90;;;;;;5073772;28;20046;-68
2024/01/06 08:46:21;;;;;;;32.83;28.40;;;1.70;99.90;;;;;;5073391;28;20134;-67
2024/01/06 08:48:47;;;;;;;31.00;23.48;;;1.80;99.90;;;;;;5056676;28;20071;-67
2024/01/06 08:51:12;;;;;;;31.38;24.63;;;1.70;99.90;;;;;;5124561;27;20043;-67
2024/01/06 08:53:38;;;;;;;30.33;22.88;;;1.90;99.90;;;;;;5074298;28;20455;-67
2024/01/06 08:56:04;;;;;;;32.35;25.95;;;1.70;99.90;;;;;;5073622;28;20109;-68
2024/01/06 08:58:29;;;;;;;23.33;19.08;;;1.90;99.90;;;;;;5056847;28;20672;-68
2024/01/06 09:00:55;;;;;;;30.10;25.27;;;1.90;99.90;;;;;;5090711;28;20281;-67
2024/01/06 09:03:24;;;;;;;27.15;23.25;;;1.90;99.90;;;;;;5090749;28;20505;-67
2024/01/06 09:05:52;;;;;;;26.40;21.08;;;1.60;99.90;;;;;;5073616;28;20035;-67
2024/01/06 09:08:18;;;;;;;23.80;19.20;;;1.70;99.90;;;;;;5091618;28;20616;-68
2024/01/06 09:10:44;;;;;;;25.40;20.70;;;1.60;99.90;;;;;;5073868;28;20055;-67
2024/01/06 09:13:10;;;;;;;24.83;21.63;;;1.60;99.90;;;;;;5090488;28;20040;-67
2024/01/06 09:15:36;;;;;;;20.45;16.50;;;1.60;99.90;;;;;;5073795;28;20040;-68
2024/01/06 09:18:02;;;;;;;23.85;18.83;;;1.50;99.90;;;;;;5057067;28;20451;-68
2024/01/06 09:20:28;;;;;;;22.20;17.35;;;1.70;99.90;;;;;;5074042;28;20151;-67
2024/01/06 09:22:54;;;;;;;22.02;17.88;;;1.70;99.90;;;;;;5090943;28;20727;-68
2024/01/06 09:25:23;;;;;;;22.17;16.35;;;1.60;99.90;;;;;;5073635;28;20335;-68
2024/01/06 09:27:48;;;;;;;19.15;15.63;;;1.60;99.90;;;;;;5057772;28;20036;-68
2024/01/06 09:30:14;;;;;;;21.13;17.77;;;1.50;99.90;;;;;;5090632;28;20074;-68
2024/01/06 09:32:40;;;;;;;19.13;16.20;;;1.60;99.90;;;;;;5090596;28;20102;-68
2024/01/06 09:35:06;;;;;;;15.95;11.57;;;1.80;99.90;;;;;;5090122;28;20381;-68
2024/01/06 09:37:32;;;;;;;17.17;14.48;;;1.60;99.90;;;;;;5074302;28;20039;-68
2024/01/06 09:39:59;;;;;;;13.98;11.25;;;1.70;99.90;;;;;;5090909;28;20089;-68
2024/01/06 09:42:25;;;;;;;16.05;13.77;;;1.50;99.90;;;;;;5090291;28;20043;-68
2024/01/06 09:44:50;;;;;;;16.88;11.77;;;1.60;99.90;;;;;;5060457;28;20509;-68
2024/01/06 09:47:18;;;;;;;13.88;11.48;;;1.80;99.90;;;;;;5060150;28;20035;-68
2024/01/06 09:49:49;;;;;;;13.05;10.52;;;1.80;99.90;;;;;;5094828;28;21132;-68
2024/01/06 09:52:20;;;;;;;15.13;11.57;;;1.70;99.90;;;;;;5094199;28;20245;-67
2024/01/06 09:54:54;;;;;;;12.13;8.00;;;1.80;99.90;;;;;;5093998;28;20520;-67
2024/01/06 09:57:23;;;;;;;16.52;12.50;;;1.80;99.90;;;;;;5077091;28;20080;-66
2024/01/06 09:59:49;;;;;;;15.15;11.93;;;1.80;99.90;;;;;;5077151;28;20567;-67
2024/01/06 10:02:16;;;;;;;16.25;13.20;;;1.90;99.90;;;;;;5094740;28;20135;-67
2024/01/06 10:04:44;;;;;;;12.93;10.50;;;1.60;99.90;;;;;;5077169;28;20501;-67
2024/01/06 10:07:12;;;;;;;14.90;12.00;;;1.80;99.90;;;;;;5060200;28;20046;-68
2024/01/06 10:09:38;;;;;;;14.00;11.45;;;1.90;99.90;;;;;;5077649;27;20038;-68
2024/01/06 10:12:04;;;;;;;17.00;11.23;;;1.70;99.90;;;;;;5092858;28;20051;-67
2024/01/06 10:14:30;;;;;;;13.38;11.98;;;1.70;99.90;;;;;;5059969;28;20035;-68
2024/01/06 10:16:56;;;;;;;15.40;12.90;;;1.80;99.90;;;;;;5077202;28;20132;-67
2024/01/06 10:19:23;;;;;;;11.60;9.20;;;1.60;99.90;;;;;;5076442;28;20040;-67
2024/01/06 10:21:49;;;;;;;14.35;10.70;;;1.70;99.90;;;;;;5076894;28;20878;-67
2024/01/06 10:24:18;;;;;;;12.55;10.13;;;1.70;99.90;;;;;;5059328;28;20501;-68
2024/01/06 10:26:47;;;;;;;12.80;10.23;;;1.70;99.90;;;;;;5076860;28;20453;-67
2024/01/06 10:29:15;;;;;;;15.70;12.00;;;1.70;99.90;;;;;;5076610;28;20059;-67
2024/01/06 10:31:41;;;;;;;14.63;11.80;;;1.50;99.90;;;;;;5076065;28;20364;-67
2024/01/06 10:34:07;;;;;;;17.67;15.02;;;1.50;99.90;;;;;;5076035;28;20521;-67
2024/01/06 10:36:33;;;;;;;18.10;15.48;;;1.80;99.90;;;;;;5076185;28;20043;-67
2024/01/06 10:39:00;;;;;;;16.63;13.40;;;1.60;99.90;;;;;;5092517;28;20141;-66
2024/01/06 10:41:27;;;;;;;18.92;16.02;;;1.80;99.90;;;;;;5092174;28;20047;-67
2024/01/06 10:43:55;;;;;;;18.65;15.77;;;1.80;99.90;;;;;;5059909;28;20039;-67
2024/01/06 10:46:24;;;;;;;15.63;13.07;;;1.70;99.90;;;;;;5059282;28;20077;-67
2024/01/06 10:48:52;;;;;;;17.13;13.60;;;1.80;99.90;;;;;;5093008;28;20397;-66
2024/01/06 10:51:19;;;;;;;14.38;11.45;;;1.80;99.90;;;;;;5075590;28;20097;-66
2024/01/06 10:53:44;;;;;;;13.43;10.80;;;1.60;99.90;;;;;;5092051;28;20153;-66
2024/01/06 10:56:10;;;;;;;12.23;10.20;;;1.60;99.90;;;;;;5075360;28;20059;-67
2024/01/06 10:58:42;;;;;;;15.30;12.98;;;1.70;99.90;;;;;;5092944;28;20046;-67
2024/01/06 11:01:12;;;;;;;14.30;11.65;;;1.70;99.90;;;;;;5075029;28;20051;-67
2024/01/06 11:03:39;;;;;;;16.75;14.13;;;1.80;99.90;;;;;;5125870;27;20131;-67
2024/01/06 11:06:11;;;;;;;12.82;10.65;;;1.70;99.90;;;;;;5126558;27;20484;-67
2024/01/06 11:09:01;;;;;;;11.65;8.90;;;1.70;99.90;;;;;;5059226;28;20270;-67
2024/01/06 11:11:27;;;;;;;12.98;9.45;;;1.70;99.90;;;;;;5074391;28;20079;-67
2024/01/06 11:14:13;;;;;;;15.30;12.65;;;1.70;99.90;;;;;;5075085;28;20349;-68
2024/01/06 11:16:39;;;;;;;14.80;12.32;;;1.80;99.90;;;;;;5077729;28;20124;-67
2024/01/06 11:19:34;;;;;;;15.77;12.75;;;1.90;99.90;;;;;;5074725;28;20166;-66
2024/01/06 11:22:20;;;;;;;13.52;10.80;;;1.90;99.90;;;;;;5092335;28;20043;-67
2024/01/06 11:24:50;;;;;;;12.88;9.80;;;1.70;99.90;;;;;;5075460;28;20052;-65
2024/01/06 11:27:30;;;;;;;14.40;11.40;;;1.80;99.90;;;;;;5074467;28;20070;-65
2024/01/06 11:30:01;;;;;;;11.27;9.38;;;1.70;99.90;;;;;;5091679;28;20156;-67
2024/01/06 11:32:41;;;;;;;14.55;12.18;;;1.70;99.90;;;;;;5075165;28;20197;-66
2024/01/06 11:35:09;;;;;;;12.48;10.02;;;1.80;99.90;;;;;;5091242;28;20051;-67
2024/01/06 11:37:39;;;;;;;15.00;12.23;;;1.70;99.90;;;;;;5072952;28;20031;-65
2024/01/06 11:40:16;;;;;;;13.60;12.10;;;1.70;99.90;;;;;;5074876;28;20342;-66
2024/01/06 11:42:42;;;;;;;15.70;13.10;;;1.70;99.90;;;;;;5074441;28;20454;-67
2024/01/06 11:45:08;;;;;;;15.73;13.25;;;1.90;99.90;;;;;;5091411;28;20043;-67
2024/01/06 11:47:36;;;;;;;11.68;9.55;;;1.80;99.90;;;;;;5092883;28;20375;-68
2024/01/06 11:50:06;;;;;;;13.57;11.95;;;1.60;99.90;;;;;;5093115;28;20513;-68
2024/01/06 11:52:33;;;;;;;14.57;12.80;;;1.80;99.90;;;;;;5093462;28;20561;-68
2024/01/06 11:55:01;;;;;;;13.25;11.25;;;1.80;99.90;;;;;;5075209;28;20055;-68
2024/01/06 11:57:27;;;;;;;15.57;12.13;;;1.80;99.90;;;;;;5092508;28;20473;-67
2024/01/06 11:59:54;;;;;;;13.20;11.35;;;1.70;99.90;;;;;;5058824;28;20222;-67
2024/01/06 12:02:22;;;;;;;14.30;10.98;;;1.80;99.90;;;;;;5076043;28;20043;-66
2024/01/06 12:04:52;;;;;;;11.40;9.40;;;1.50;99.90;;;;;;5076030;28;20035;-67
2024/01/06 12:07:19;;;;;;;13.40;11.18;;;1.50;99.90;;;;;;5075399;28;20680;-69
2024/01/06 12:09:49;;;;;;;13.98;10.63;;;1.50;99.90;;;;;;5075211;28;20048;-67
2024/01/06 12:12:18;;;;;;;14.18;11.98;;;1.60;99.90;;;;;;5091708;28;20642;-68
2024/01/06 12:14:45;;;;;;;15.18;12.57;;;1.60;99.90;;;;;;5074983;28;20047;-68
2024/01/06 12:17:12;;;;;;;12.68;11.30;;;1.70;99.90;;;;;;5058178;28;20417;-68
2024/01/06 12:19:39;;;;;;;13.05;10.38;;;1.70;99.90;;;;;;5074729;28;20543;-69
2024/01/06 12:22:06;;;;;;;13.13;9.75;;;1.70;99.90;;;;;;5073621;28;20054;-68
2024/01/06 12:24:31;;;;;;;11.45;9.15;;;1.60;99.90;;;;;;5073836;28;20048;-69
2024/01/06 12:26:58;;;;;;;13.05;10.93;;;1.60;99.90;;;;;;5073651;28;20722;-68
2024/01/06 12:29:28;;;;;;;12.35;10.82;;;1.40;99.90;;;;;;5074180;28;20050;-68
2024/01/06 12:31:55;;;;;;;14.25;11.07;;;1.60;99.90;;;;;;5074206;28;20071;-68
2024/01/06 12:34:21;;;;;;;15.40;11.93;;;1.60;99.90;;;;;;5092248;27;20046;-68
2024/01/06 12:36:47;;;;;;;14.07;11.40;;;1.60;99.90;;;;;;5075108;28;20039;-68